createdAt,value
2017-04-07T16:32:05.938Z,18.76
2017-04-07T16:33:04.345Z,27.58
2017-04-07T16:34:02.705Z,24.72
2017-04-07T16:35:00.364Z,22.12
2017-04-07T16:35:58.723Z,17.98
2017-04-07T16:36:56.370Z,18.74
2017-04-07T16:37:54.043Z,23.52
2017-04-07T16:38:51.653Z,22.68
2017-04-07T16:39:49.488Z,18.82
2017-04-07T16:40:47.064Z,20.56
2017-04-07T16:41:44.662Z,24.40
2017-04-07T16:42:42.232Z,18.10
2017-04-07T16:43:39.837Z,12.90
2017-04-07T16:44:37.432Z,24.66
2017-04-07T16:45:35.020Z,20.38
2017-04-07T16:46:32.614Z,18.44
2017-04-07T16:47:30.223Z,19.30
2017-04-07T16:48:27.836Z,22.64
2017-04-07T16:49:25.437Z,27.40
2017-04-07T16:50:22.980Z,23.72
2017-04-07T16:51:20.542Z,25.40
2017-04-07T16:52:18.121Z,27.98
2017-04-07T16:53:16.224Z,27.36
2017-04-07T16:54:13.788Z,25.74
2017-04-07T16:55:11.356Z,31.74
2017-04-07T16:56:08.926Z,29.94
2017-04-07T16:57:06.497Z,23.66
2017-04-07T16:58:04.067Z,21.82
2017-04-07T16:59:01.622Z,23.70
2017-04-07T16:59:59.165Z,33.00
2017-04-07T17:00:56.792Z,32.50
2017-04-07T17:01:54.382Z,21.72
2017-04-07T17:02:52.713Z,26.98
2017-04-07T17:03:50.291Z,21.56
2017-04-07T17:04:48.007Z,27.02
2017-04-07T17:05:45.666Z,21.98
2017-04-07T17:06:43.261Z,24.82
2017-04-07T17:07:40.820Z,25.56
2017-04-07T17:08:38.369Z,25.62
2017-04-07T17:09:36.713Z,21.36
2017-04-07T17:10:34.262Z,20.50
2017-04-07T17:11:31.984Z,22.26
2017-04-07T17:12:29.635Z,20.52
2017-04-07T17:13:27.182Z,26.74
2017-04-07T17:14:25.978Z,24.54
2017-04-07T17:15:23.549Z,23.06
2017-04-07T17:16:21.093Z,25.84
2017-04-07T17:17:18.672Z,20.92
2017-04-07T17:18:16.717Z,19.50
2017-04-07T17:19:14.269Z,27.84
2017-04-07T17:20:11.880Z,21.22
2017-04-07T17:21:10.461Z,19.24
2017-04-07T17:22:08.876Z,23.22
2017-04-07T17:23:07.196Z,24.84
2017-04-07T17:24:05.256Z,18.04
2017-04-07T17:25:04.563Z,22.72
2017-04-07T17:26:03.260Z,25.38
2017-04-07T17:27:01.600Z,21.88
2017-04-07T17:27:59.140Z,27.60
2017-04-07T17:28:56.969Z,20.80
2017-04-07T17:29:54.624Z,21.96
2017-04-07T17:30:52.177Z,18.04
2017-04-07T17:31:49.988Z,15.48
2017-04-07T17:32:48.348Z,20.36
2017-04-07T17:33:46.184Z,16.74
2017-04-07T17:34:43.727Z,18.40
2017-04-07T17:35:41.740Z,15.76
2017-04-07T17:36:39.281Z,21.36
2017-04-07T17:37:36.829Z,22.38
2017-04-07T17:38:35.209Z,17.12
2017-04-07T17:39:32.814Z,17.70
2017-04-07T17:40:31.116Z,14.90
2017-04-07T17:41:28.717Z,18.78
2017-04-07T17:42:26.272Z,14.40
2017-04-07T17:43:23.824Z,17.04
2017-04-07T17:44:21.435Z,13.60
2017-04-07T17:45:18.991Z,14.34
2017-04-07T17:46:16.568Z,12.90
2017-04-07T17:47:14.251Z,22.60
2017-04-07T17:48:12.213Z,13.08
2017-04-07T17:49:09.918Z,16.00
2017-04-07T17:50:07.496Z,14.76
2017-04-07T17:51:05.081Z,16.36
2017-04-07T17:52:03.571Z,11.42
2017-04-07T17:53:01.200Z,11.50
2017-04-07T17:53:58.785Z,12.22
2017-04-07T17:54:56.545Z,13.44
2017-04-07T17:55:54.196Z,16.46
2017-04-07T17:56:51.756Z,13.74
2017-04-07T17:57:49.325Z,12.38
2017-04-07T17:58:46.927Z,13.54
2017-04-07T17:59:44.546Z,10.22
2017-04-07T18:00:42.163Z,14.76
2017-04-07T18:01:39.740Z,14.82
2017-04-07T18:02:37.461Z,13.56
2017-04-07T18:03:36.105Z,15.28
2017-04-07T18:04:34.432Z,11.76
2017-04-07T18:05:32.066Z,10.24
2017-04-07T18:06:29.694Z,12.52
2017-04-07T18:07:27.288Z,15.50
2017-04-07T18:08:24.844Z,11.22
2017-04-07T18:09:22.437Z,11.18
2017-04-07T18:10:20.045Z,9.74
2017-04-07T18:11:17.623Z,11.26
2017-04-07T18:12:15.192Z,11.34
2017-04-07T18:13:13.531Z,14.90
2017-04-07T18:14:11.935Z,11.44
2017-04-07T18:15:09.570Z,13.96
2017-04-07T18:16:07.145Z,12.96
2017-04-07T18:17:06.010Z,13.18
2017-04-07T18:18:03.577Z,15.50
2017-04-07T18:19:01.418Z,19.08
2017-04-07T18:19:58.997Z,18.76
2017-04-07T18:20:56.571Z,19.04
2017-04-07T18:21:54.132Z,11.06
2017-04-07T18:22:52.150Z,13.34
2017-04-07T18:23:49.766Z,11.60
2017-04-07T18:24:47.419Z,18.04
2017-04-07T18:25:46.480Z,10.22
2017-04-07T18:26:44.085Z,11.44
2017-04-07T18:27:41.717Z,17.50
2017-04-07T18:28:39.817Z,16.74
2017-04-07T18:29:39.182Z,11.48
2017-04-07T18:30:36.831Z,16.28
2017-04-07T18:31:35.178Z,13.40
2017-04-07T18:32:32.880Z,17.16
2017-04-07T18:33:30.824Z,12.04
2017-04-07T18:34:29.154Z,11.84
2017-04-07T18:35:26.728Z,11.96
2017-04-07T18:36:25.106Z,13.98
2017-04-07T18:37:22.751Z,13.74
2017-04-07T18:38:20.374Z,17.08
2017-04-07T18:39:18.748Z,11.64
2017-04-07T18:40:16.348Z,13.36
2017-04-07T18:41:13.925Z,12.78
2017-04-07T18:42:12.615Z,18.20
2017-04-07T18:43:10.224Z,12.74
2017-04-07T18:44:08.552Z,15.24
2017-04-07T18:45:06.125Z,11.22
2017-04-07T18:46:03.705Z,15.24
2017-04-07T18:47:02.164Z,8.48
2017-04-07T18:47:59.969Z,14.18
2017-04-07T18:48:57.554Z,11.22
2017-04-07T18:49:55.153Z,10.66
2017-04-07T18:51:10.806Z,9.98
2017-04-07T18:52:08.371Z,12.30
2017-04-07T18:53:06.725Z,10.90
2017-04-07T18:54:04.264Z,9.18
2017-04-07T18:55:01.887Z,8.34
2017-04-07T18:55:59.457Z,12.80
2017-04-07T18:56:57.172Z,14.36
